Time;durP1;ratioP1;P1;durP2;ratioP2;P2;SDS_P1;SDS_P2;PMS_P1;PMS_P2;Temp;Humidity;BMP_temperature;BMP_pressure;BME280_temperature;BME280_humidity;BME280_pressure;Samples;Min_cycle;Max_cycle;Signal;HPM_P1;HPM_P2
2023/06/05 00:01:43;;;;;;;7.22;4.15;;;;;;;-143.48;78.64;118439.88;5018922;28;20045;-75
2023/06/05 00:04:09;;;;;;;7.13;3.97;;;;;;;-143.48;79.01;118439.88;5037276;28;20033;-75
2023/06/05 00:06:34;;;;;;;5.63;3.78;;;;;;;-143.48;79.15;118439.88;5037363;28;20079;-75
2023/06/05 00:09:00;;;;;;;10.05;4.10;;;;;;;-143.48;79.63;118439.88;5019500;28;20099;-75
2023/06/05 00:11:26;;;;;;;9.32;4.28;;;;;;;-143.48;80.58;118439.88;5037303;28;20026;-75
2023/06/05 00:13:52;;;;;;;6.57;4.20;;;;;;;-143.48;79.50;118439.88;5018874;28;20025;-75
2023/06/05 00:16:17;;;;;;;8.13;4.30;;;;;;;-143.48;80.20;118439.88;5037076;28;20107;-74
2023/06/05 00:18:45;;;;;;;9.13;4.18;;;;;;;-143.48;79.61;118439.88;5036562;28;20440;-75
2023/06/05 00:21:11;;;;;;;8.05;4.13;;;;;;;-143.48;81.63;118439.88;5018694;28;20051;-75
2023/06/05 00:23:37;;;;;;;6.40;4.18;;;;;;;-143.48;80.14;118439.88;5018725;28;20021;-75
2023/06/05 00:26:02;;;;;;;9.73;4.43;;;;;;;-143.48;80.53;118439.88;5018701;28;20028;-75
2023/06/05 00:28:27;;;;;;;10.45;4.60;;;;;;;-143.48;80.61;118439.88;5036332;28;20543;-75
2023/06/05 00:30:53;;;;;;;10.43;4.68;;;;;;;-143.48;80.76;118439.88;5036581;28;20377;-75
2023/06/05 00:33:18;;;;;;;11.02;4.47;;;;;;;-143.48;81.57;118439.88;5036474;28;20033;-75
2023/06/05 00:35:44;;;;;;;8.50;4.30;;;;;;;-143.48;81.56;118439.88;5018829;28;20048;-75
2023/06/05 00:38:09;;;;;;;7.65;3.97;;;;;;;-143.48;81.72;118439.88;5036454;28;20064;-75
2023/06/05 00:40:34;;;;;;;7.07;4.35;;;;;;;-143.48;81.62;118439.88;5019074;28;20021;-75
2023/06/05 00:43:00;;;;;;;10.77;4.65;;;;;;;-143.48;82.83;118439.88;5036079;28;20096;-75
2023/06/05 00:45:25;;;;;;;7.35;4.85;;;;;;;-143.48;82.99;118439.88;5036310;28;20100;-75
2023/06/05 00:47:51;;;;;;;10.02;4.47;;;;;;;-143.48;82.71;118439.88;5036163;28;20408;-75
2023/06/05 00:50:17;;;;;;;12.13;4.72;;;;;;;-143.48;81.92;118439.88;5018468;28;20025;-75
2023/06/05 00:52:43;;;;;;;8.63;4.68;;;;;;;-143.48;83.00;118439.88;5018442;28;20036;-75
2023/06/05 00:55:09;;;;;;;7.80;4.32;;;;;;;-143.48;82.48;118439.88;5035808;28;20030;-75
2023/06/05 00:57:34;;;;;;;9.50;4.38;;;;;;;-143.48;82.23;118439.88;5018247;28;20029;-75
2023/06/05 01:00:01;;;;;;;8.80;4.53;;;;;;;-143.48;83.37;118439.88;5018133;28;20026;-75
2023/06/05 01:02:28;;;;;;;8.68;4.50;;;;;;;-143.48;83.17;118439.88;5018195;28;20041;-75
2023/06/05 01:04:56;;;;;;;12.55;5.10;;;;;;;-143.48;83.06;118439.88;5035668;28;20036;-75
2023/06/05 01:07:22;;;;;;;9.88;4.93;;;;;;;-143.48;82.55;118439.88;5036271;28;20029;-75
2023/06/05 01:09:47;;;;;;;8.52;4.80;;;;;;;-143.48;82.72;118439.88;5035957;28;20121;-76
2023/06/05 01:12:37;;;;;;;7.40;4.63;;;;;;;-143.48;83.84;118439.88;5035910;28;20032;-75
2023/06/05 01:15:05;;;;;;;10.32;4.82;;;;;;;-143.48;83.16;118439.88;5017803;28;20029;-75
2023/06/05 01:17:33;;;;;;;8.80;5.10;;;;;;;-143.48;82.27;118439.88;5018080;28;20151;-75
2023/06/05 01:20:09;;;;;;;9.18;5.00;;;;;;;-143.48;82.09;118439.88;5035810;28;20025;-75
2023/06/05 01:22:37;;;;;;;12.27;5.00;;;;;;;-143.48;82.55;118439.88;5017498;28;20029;-75
2023/06/05 01:25:07;;;;;;;8.88;4.88;;;;;;;-143.48;82.99;118439.88;5017491;28;20033;-75
2023/06/05 01:27:48;;;;;;;12.02;5.43;;;;;;;-143.48;83.01;118439.88;5035350;28;20072;-75
2023/06/05 01:30:17;;;;;;;13.50;5.00;;;;;;;-143.48;84.52;118439.88;5035019;28;20059;-75
2023/06/05 01:33:04;;;;;;;7.93;5.05;;;;;;;-143.48;83.74;118439.88;5017217;28;20107;-75
2023/06/05 01:35:33;;;;;;;8.07;4.88;;;;;;;-143.48;84.35;118439.88;5017367;28;20116;-75
2023/06/05 01:38:01;;;;;;;8.82;4.80;;;;;;;-143.48;85.20;118439.88;5034989;28;20091;-75
2023/06/05 01:40:29;;;;;;;11.88;5.10;;;;;;;-143.48;84.29;118439.88;5034943;28;20399;-75
2023/06/05 01:42:55;;;;;;;9.18;4.97;;;;;;;-143.48;84.08;118439.88;5017098;28;20025;-75
2023/06/05 01:45:21;;;;;;;9.02;4.80;;;;;;;-143.48;83.77;118439.88;5017023;28;20029;-75
2023/06/05 01:47:48;;;;;;;11.23;4.97;;;;;;;-143.48;83.60;118439.88;5016903;28;20079;-75
2023/06/05 01:50:13;;;;;;;9.63;5.05;;;;;;;-143.48;83.72;118439.88;5016867;28;20072;-75
2023/06/05 01:52:41;;;;;;;8.27;4.88;;;;;;;-143.48;83.77;118439.88;5016845;28;20444;-75
2023/06/05 01:55:15;;;;;;;8.30;4.72;;;;;;;-143.48;83.71;118439.88;5017009;28;20022;-76
2023/06/05 01:57:43;;;;;;;9.02;5.50;;;;;;;-143.48;85.44;118439.88;5034562;28;20021;-75
2023/06/05 02:00:13;;;;;;;11.27;5.15;;;;;;;-143.48;85.54;118439.88;5016615;28;20075;-75
2023/06/05 02:02:42;;;;;;;12.38;5.40;;;;;;;-143.48;84.88;118439.88;5034532;28;20033;-75
2023/06/05 02:05:10;;;;;;;9.20;4.90;;;;;;;-143.48;84.64;118439.88;5033947;28;20212;-75
2023/06/05 02:07:40;;;;;;;10.63;5.15;;;;;;;-143.48;84.19;118439.88;5034750;28;20028;-75
2023/06/05 02:10:07;;;;;;;10.07;4.85;;;;;;;-143.48;84.33;118439.88;5034420;28;20021;-75
2023/06/05 02:12:32;;;;;;;9.50;4.80;;;;;;;-143.48;84.34;118439.88;5034440;28;20041;-75
2023/06/05 02:14:59;;;;;;;8.43;4.93;;;;;;;-143.48;84.59;118439.88;5016836;28;20032;-74
2023/06/05 02:17:24;;;;;;;8.93;5.22;;;;;;;-143.48;84.61;118439.88;5034231;28;20060;-74
2023/06/05 02:19:50;;;;;;;10.07;5.55;;;;;;;-143.48;84.88;118439.88;5034139;28;20026;-75
2023/06/05 02:22:16;;;;;;;7.82;4.63;;;;;;;-143.48;84.32;118439.88;5016289;28;20415;-75
2023/06/05 02:24:42;;;;;;;10.32;5.30;;;;;;;-143.48;84.57;118439.88;5016395;28;20159;-74
2023/06/05 02:27:08;;;;;;;12.35;5.75;;;;;;;-143.48;85.25;118439.88;5016217;28;20067;-75
2023/06/05 02:29:33;;;;;;;10.55;5.50;;;;;;;-143.48;86.46;118439.88;5033710;28;20034;-75
2023/06/05 02:31:58;;;;;;;9.05;5.43;;;;;;;-143.48;85.79;118439.88;5033873;28;20022;-75
2023/06/05 02:34:24;;;;;;;11.98;5.63;;;;;;;-143.48;86.26;118439.88;5016214;28;20036;-75
2023/06/05 02:36:50;;;;;;;12.70;6.03;;;;;;;-143.48;85.74;118439.88;5016090;28;20457;-75
2023/06/05 02:39:16;;;;;;;10.25;5.45;;;;;;;-143.48;85.31;118439.88;5033865;28;20078;-75
2023/06/05 02:41:44;;;;;;;13.57;5.85;;;;;;;-143.48;85.81;118439.88;5016017;28;20032;-75
2023/06/05 02:44:09;;;;;;;8.20;5.38;;;;;;;-143.48;85.97;118439.88;5033666;28;20022;-75
2023/06/05 02:46:34;;;;;;;10.35;5.20;;;;;;;-143.48;86.18;118439.88;5015965;28;20033;-75
2023/06/05 02:49:00;;;;;;;13.90;5.85;;;;;;;-143.48;85.89;118439.88;5033574;28;20559;-75
2023/06/05 02:51:25;;;;;;;11.40;5.95;;;;;;;-143.48;86.71;118439.88;5033505;28;20113;-75
2023/06/05 02:53:50;;;;;;;11.70;5.72;;;;;;;-143.48;85.83;118439.88;5033494;28;20495;-75
2023/06/05 02:56:16;;;;;;;11.32;5.50;;;;;;;-143.48;86.52;118439.88;5015739;28;20063;-75
2023/06/05 02:58:43;;;;;;;11.73;5.95;;;;;;;-143.48;87.57;118439.88;5033629;28;20029;-75
2023/06/05 03:01:10;;;;;;;11.88;5.88;;;;;;;-143.48;87.46;118439.88;5015586;28;20578;-75
2023/06/05 03:03:36;;;;;;;8.70;5.50;;;;;;;-143.48;87.52;118439.88;5015749;28;20025;-75
2023/06/05 03:06:06;;;;;;;9.55;5.60;;;;;;;-143.48;87.40;118439.88;5015724;28;20035;-75
2023/06/05 03:08:33;;;;;;;8.13;5.38;;;;;;;-143.48;87.13;118439.88;5033127;28;20021;-75
2023/06/05 03:10:59;;;;;;;13.20;5.90;;;;;;;-143.48;87.04;118439.88;5033087;28;20144;-75
2023/06/05 03:13:25;;;;;;;12.90;6.07;;;;;;;-143.48;87.01;118439.88;5014603;28;20029;-75
2023/06/05 03:15:53;;;;;;;10.00;5.82;;;;;;;-143.48;86.77;118439.88;5033306;28;20473;-76
2023/06/05 03:18:21;;;;;;;9.55;5.88;;;;;;;-143.48;87.77;118439.88;5033234;28;20029;-75
2023/06/05 03:20:49;;;;;;;9.52;6.15;;;;;;;-143.48;87.96;118439.88;5015485;28;20025;-75
2023/06/05 03:23:15;;;;;;;11.43;5.97;;;;;;;-143.48;88.11;118439.88;5033286;28;20033;-75
2023/06/05 03:25:40;;;;;;;12.68;6.75;;;;;;;-143.48;87.97;118439.88;5033166;28;20026;-75
2023/06/05 03:28:05;;;;;;;11.95;5.75;;;;;;;-143.48;87.45;118439.88;5032958;28;20083;-74
2023/06/05 03:30:31;;;;;;;10.13;6.20;;;;;;;-143.48;87.49;118439.88;5032898;28;20431;-75
2023/06/05 03:32:57;;;;;;;12.38;5.43;;;;;;;-143.48;88.07;118439.88;4998998;28;20033;-75
2023/06/05 03:35:22;;;;;;;10.65;5.88;;;;;;;-143.48;88.43;118439.88;5015304;28;20048;-75
2023/06/05 03:37:47;;;;;;;11.13;6.10;;;;;;;-143.48;88.30;118439.88;5032990;28;20056;-76
2023/06/05 03:40:13;;;;;;;13.35;5.55;;;;;;;-143.48;87.83;118439.88;5033005;28;20018;-75
2023/06/05 03:42:38;;;;;;;12.30;6.40;;;;;;;-143.48;86.94;118439.88;5015137;28;20029;-75
2023/06/05 03:45:04;;;;;;;12.27;6.13;;;;;;;-143.48;88.01;118439.88;5015316;28;20032;-75
2023/06/05 03:47:29;;;;;;;14.95;6.10;;;;;;;-143.48;89.13;118439.88;5032858;28;20072;-76
2023/06/05 03:49:55;;;;;;;9.80;6.03;;;;;;;-143.48;88.14;118439.88;5015090;28;20026;-75
2023/06/05 03:52:24;;;;;;;14.75;6.57;;;;;;;-143.48;88.55;118439.88;5032885;28;20056;-75
2023/06/05 03:54:53;;;;;;;10.68;5.38;;;;;;;-143.48;87.42;118439.88;5014292;28;20111;-76
2023/06/05 03:57:20;;;;;;;12.93;5.90;;;;;;;-143.48;87.07;118439.88;5014852;28;20030;-75
2023/06/05 03:59:46;;;;;;;12.45;6.32;;;;;;;-143.48;88.47;118439.88;5032867;28;20033;-75
2023/06/05 04:02:12;;;;;;;10.55;6.07;;;;;;;-143.48;88.25;118439.88;5031421;28;20408;-75
2023/06/05 04:04:37;;;;;;;15.10;6.25;;;;;;;-143.48;86.80;118439.88;5032762;28;20026;-75
2023/06/05 04:07:03;;;;;;;8.88;6.40;;;;;;;-143.48;87.78;118439.88;5014853;28;20032;-75
2023/06/05 04:09:29;;;;;;;13.18;6.10;;;;;;;-143.48;87.34;118439.88;5032625;28;20041;-75
2023/06/05 04:11:55;;;;;;;11.77;6.07;;;;;;;-143.48;87.49;118439.88;5032820;28;20083;-75
2023/06/05 04:14:20;;;;;;;11.75;5.88;;;;;;;-143.48;87.36;118439.88;5032807;28;20026;-75
2023/06/05 04:16:45;;;;;;;11.93;6.05;;;;;;;-143.48;88.03;118439.88;5032782;28;20080;-75
2023/06/05 04:19:12;;;;;;;10.55;6.10;;;;;;;-143.48;88.06;118439.88;5014815;28;20053;-75
2023/06/05 04:21:38;;;;;;;13.48;5.88;;;;;;;-143.48;87.13;118439.88;5032650;28;20473;-75
2023/06/05 04:24:09;;;;;;;11.75;6.18;;;;;;;-143.48;87.65;118439.88;5032633;28;20021;-75
2023/06/05 04:26:43;;;;;;;13.95;6.18;;;;;;;-143.48;87.78;118439.88;5014948;28;20477;-75
2023/06/05 04:29:18;;;;;;;14.27;5.90;;;;;;;-143.48;88.61;118439.88;5016384;28;20051;-75
2023/06/05 04:31:47;;;;;;;10.75;5.88;;;;;;;-143.48;89.01;118439.88;5018436;28;20022;-75
2023/06/05 04:34:12;;;;;;;9.15;5.88;;;;;;;-143.48;87.29;118439.88;5036324;28;20048;-75
2023/06/05 04:36:38;;;;;;;11.52;6.15;;;;;;;-143.48;86.70;118439.88;5036337;28;20033;-75
2023/06/05 04:39:04;;;;;;;12.18;5.55;;;;;;;-143.48;86.67;118439.88;5018477;28;20017;-75
2023/06/05 04:41:34;;;;;;;11.18;5.68;;;;;;;-143.48;87.08;118439.88;5018419;28;20025;-75
2023/06/05 04:43:59;;;;;;;13.80;5.95;;;;;;;-143.48;87.05;118439.88;5018299;28;20120;-75
2023/06/05 04:46:26;;;;;;;11.55;5.90;;;;;;;-143.48;86.30;118439.88;5035908;28;20100;-76
2023/06/05 04:48:55;;;;;;;15.00;6.18;;;;;;;-143.48;86.22;118439.88;5018076;28;20416;-76
2023/06/05 04:51:22;;;;;;;10.38;6.03;;;;;;;-143.48;86.19;118439.88;5035956;28;20108;-75
2023/06/05 04:53:50;;;;;;;9.80;5.53;;;;;;;-143.48;86.74;118439.88;5035787;28;20021;-75
2023/06/05 04:56:16;;;;;;;10.02;5.55;;;;;;;-143.48;86.73;118439.88;5018418;28;20025;-75
2023/06/05 04:58:41;;;;;;;9.65;5.68;;;;;;;-143.48;85.36;118439.88;5017892;28;20099;-75
2023/06/05 05:01:08;;;;;;;11.88;5.82;;;;;;;-143.48;85.12;118439.88;5035467;28;20048;-75
2023/06/05 05:03:33;;;;;;;11.02;5.68;;;;;;;-143.48;85.02;118439.88;5035503;28;20381;-75
2023/06/05 05:06:00;;;;;;;13.40;5.82;;;;;;;-143.48;82.99;118439.88;5017757;28;20029;-75
2023/06/05 05:08:25;;;;;;;9.73;5.57;;;;;;;-143.48;82.13;118439.88;5017602;28;20116;-75
2023/06/05 05:10:50;;;;;;;11.32;5.95;;;;;;;-143.48;82.69;118439.88;5017806;28;20168;-75
2023/06/05 05:13:16;;;;;;;11.88;6.00;;;;;;;-143.48;81.90;118439.88;5035626;28;20388;-75
2023/06/05 05:15:41;;;;;;;10.48;6.00;;;;;;;-143.48;82.87;118439.88;5035483;28;20028;-75
2023/06/05 05:18:07;;;;;;;9.82;6.15;;;;;;;-143.48;81.27;118439.88;5017792;28;20029;-75
2023/06/05 05:20:34;;;;;;;9.10;6.30;;;;;;;-143.48;80.85;118439.88;5017611;28;20014;-75
2023/06/05 05:23:00;;;;;;;12.85;6.43;;;;;;;-143.48;80.47;118439.88;5017506;28;20033;-75
2023/06/05 05:25:26;;;;;;;12.75;6.95;;;;;;;-143.48;80.71;118439.88;5017688;28;20416;-75
2023/06/05 05:27:51;;;;;;;10.98;6.55;;;;;;;-143.48;79.40;118439.88;5017747;28;20072;-75
2023/06/05 05:30:16;;;;;;;14.63;6.93;;;;;;;-143.48;76.88;118439.88;5017463;28;20425;-75
2023/06/05 05:32:42;;;;;;;10.50;7.00;;;;;;;-143.48;77.63;118439.88;5017584;28;20035;-75
2023/06/05 05:35:08;;;;;;;15.05;7.03;;;;;;;-143.48;78.61;118439.88;5017337;28;20393;-75
2023/06/05 05:37:33;;;;;;;12.43;6.85;;;;;;;-143.48;77.96;118439.88;5017339;28;20128;-74
2023/06/05 05:39:58;;;;;;;10.23;6.60;;;;;;;-143.48;77.13;118439.88;5034195;28;20469;-75
2023/06/05 05:42:24;;;;;;;11.05;6.30;;;;;;;-143.48;71.14;118439.88;5034927;28;20025;-75
2023/06/05 05:44:49;;;;;;;11.80;5.65;;;;;;;-143.48;62.19;118439.88;5017177;28;20026;-75
2023/06/05 05:47:14;;;;;;;11.07;5.57;;;;;;;-143.48;65.66;118439.88;5016702;28;20017;-74
2023/06/05 05:49:40;;;;;;;10.30;5.30;;;;;;;-143.48;59.71;118439.88;5016861;28;20029;-75
2023/06/05 05:52:05;;;;;;;8.45;5.38;;;;;;;-143.48;60.09;118439.88;5035010;28;20026;-75
2023/06/05 05:54:30;;;;;;;8.45;5.10;;;;;;;-143.48;59.39;118439.88;5017087;28;20492;-76
2023/06/05 05:56:56;;;;;;;7.13;4.60;;;;;;;-143.48;56.14;118439.88;5017112;28;20032;-76
2023/06/05 05:59:21;;;;;;;9.45;4.68;;;;;;;-143.48;56.28;118439.88;5016982;28;20476;-76
2023/06/05 06:01:48;;;;;;;9.98;4.93;;;;;;;-143.48;56.27;118439.88;5034206;28;20060;-76
2023/06/05 06:04:16;;;;;;;7.00;4.60;;;;;;;-143.48;57.26;118439.88;5014164;28;20029;-76
2023/06/05 06:06:41;;;;;;;8.98;4.70;;;;;;;-143.48;54.09;118439.88;5014721;28;20076;-77
2023/06/05 06:09:08;;;;;;;7.32;4.70;;;;;;;-143.48;52.97;118439.88;5014891;28;20029;-76
2023/06/05 06:11:35;;;;;;;7.07;4.60;;;;;;;-143.48;56.38;118439.88;5014967;28;20432;-76
2023/06/05 06:14:01;;;;;;;7.22;4.70;;;;;;;-143.48;53.72;118439.88;5032595;28;20098;-76
2023/06/05 06:16:27;;;;;;;9.40;4.90;;;;;;;-143.48;52.59;118439.88;5032675;28;20381;-77
2023/06/05 06:18:52;;;;;;;10.18;5.00;;;;;;;-143.48;62.33;118439.88;5014711;28;20441;-76
2023/06/05 06:21:18;;;;;;;7.97;5.38;;;;;;;-143.48;65.13;118439.88;5032573;28;20033;-76
2023/06/05 06:23:44;;;;;;;11.85;5.53;;;;;;;-143.48;64.34;118439.88;5014520;28;20489;-76
2023/06/05 06:26:10;;;;;;;10.05;5.82;;;;;;;-143.48;67.57;118439.88;5015112;28;20064;-76
2023/06/05 06:28:35;;;;;;;8.07;5.30;;;;;;;-143.48;55.89;118439.88;5032876;28;20104;-76
2023/06/05 06:31:01;;;;;;;21.25;5.65;;;;;;;-143.48;53.12;118439.88;5014979;28;20032;-76
2023/06/05 06:33:26;;;;;;;10.13;5.88;;;;;;;-143.48;52.88;118439.88;5015969;28;20028;-76
2023/06/05 06:35:52;;;;;;;10.45;5.10;;;;;;;-143.48;51.98;118439.88;5016090;28;20544;-76
2023/06/05 06:38:17;;;;;;;8.43;5.20;;;;;;;-143.48;53.04;118439.88;5033549;28;20024;-76
2023/06/05 06:40:42;;;;;;;8.38;5.15;;;;;;;-143.48;52.69;118439.88;5033121;28;20025;-75
2023/06/05 06:43:08;;;;;;;9.93;5.10;;;;;;;-143.48;51.84;118439.88;5033545;28;20495;-75
2023/06/05 06:45:33;;;;;;;8.57;5.45;;;;;;;-143.48;60.82;118439.88;5033478;28;20018;-75
2023/06/05 06:47:58;;;;;;;8.18;5.25;;;;;;;-143.48;58.79;118439.88;5033547;28;20028;-74
2023/06/05 06:50:24;;;;;;;8.95;5.25;;;;;;;-143.48;60.38;118439.88;5015392;28;20366;-71
2023/06/05 06:52:49;;;;;;;9.10;5.60;;;;;;;-143.48;58.52;118439.88;5015090;28;20388;-70
2023/06/05 06:55:15;;;;;;;8.18;4.72;;;;;;;-143.48;57.26;118439.88;5032870;28;20028;-71
2023/06/05 06:57:40;;;;;;;8.02;5.10;;;;;;;-143.48;56.36;118439.88;5015042;28;20040;-72
2023/06/05 07:00:08;;;;;;;9.18;5.13;;;;;;;-143.48;58.14;118439.88;5015355;28;20017;-71
2023/06/05 07:02:33;;;;;;;8.00;4.90;;;;;;;-143.48;58.23;118439.88;5015168;28;20053;-72
2023/06/05 07:04:59;;;;;;;8.50;4.53;;;;;;;-143.48;57.33;118439.88;5015182;28;20555;-71
2023/06/05 07:07:24;;;;;;;7.55;4.38;;;;;;;-143.48;54.94;118439.88;5015277;28;20025;-72
2023/06/05 07:09:51;;;;;;;8.18;4.47;;;;;;;-143.48;55.17;118439.88;5033243;28;20022;-71
2023/06/05 07:12:19;;;;;;;10.00;4.10;;;;;;;-143.48;53.37;118439.88;5015351;28;20103;-72
2023/06/05 07:14:45;;;;;;;5.55;3.80;;;;;;;-143.48;54.79;118439.88;5033071;28;20025;-71
2023/06/05 07:17:10;;;;;;;5.80;3.80;;;;;;;-143.48;53.82;118439.88;5032959;28;20468;-71
2023/06/05 07:19:36;;;;;;;6.65;4.38;;;;;;;-143.48;54.17;118439.88;5032883;28;20025;-71
2023/06/05 07:22:04;;;;;;;7.00;4.05;;;;;;;-143.48;52.74;118439.88;5015100;28;20384;-71
2023/06/05 07:24:30;;;;;;;7.10;3.80;;;;;;;-143.48;54.55;118439.88;5032714;28;20113;-72
2023/06/05 07:26:59;;;;;;;6.10;3.58;;;;;;;-143.48;53.00;118439.88;5015014;28;20029;-71
2023/06/05 07:29:25;;;;;;;6.85;3.80;;;;;;;-143.48;51.89;118439.88;5014882;28;20485;-72
2023/06/05 07:31:52;;;;;;;10.55;4.47;;;;;;;-143.48;54.01;118439.88;5032632;28;20095;-72
2023/06/05 07:34:19;;;;;;;7.40;3.92;;;;;;;-143.48;51.28;118439.88;5032644;28;20025;-71
2023/06/05 07:36:45;;;;;;;7.55;4.30;;;;;;;-143.48;55.09;118439.88;5032442;28;20053;-71
2023/06/05 07:39:11;;;;;;;6.32;3.88;;;;;;;-143.48;53.90;118439.88;5032318;28;20022;-71
2023/06/05 07:41:37;;;;;;;8.13;4.30;;;;;;;-143.48;51.99;118439.88;5014686;28;20025;-71
2023/06/05 07:44:02;;;;;;;8.65;4.20;;;;;;;-143.48;51.56;118439.88;5014514;28;20026;-71
2023/06/05 07:46:28;;;;;;;8.85;4.07;;;;;;;-143.48;50.07;118439.88;5014066;28;20058;-71
2023/06/05 07:48:53;;;;;;;6.57;3.72;;;;;;;-143.48;50.98;118439.88;5014185;28;20440;-71
2023/06/05 07:51:18;;;;;;;11.48;4.65;;;;;;;-143.48;50.58;118439.88;5032218;28;20439;-71
2023/06/05 07:53:44;;;;;;;8.63;4.10;;;;;;;-143.48;50.05;118439.88;5031885;28;20037;-72
2023/06/05 07:56:11;;;;;;;7.78;3.63;;;;;;;-143.48;49.83;118439.88;5014275;28;20017;-71
2023/06/05 07:58:37;;;;;;;5.72;4.00;;;;;;;-143.48;49.16;118439.88;5014315;28;20056;-70
2023/06/05 08:01:03;;;;;;;5.30;3.78;;;;;;;-143.48;49.34;118439.88;5031641;28;20037;-71
2023/06/05 08:03:29;;;;;;;5.00;3.72;;;;;;;-143.48;47.35;118439.88;5015207;28;20117;-70
2023/06/05 08:05:54;;;;;;;9.90;4.45;;;;;;;-143.48;48.69;118439.88;5036378;28;20116;-71
2023/06/05 08:08:19;;;;;;;6.22;3.97;;;;;;;-143.48;49.20;118439.88;5035677;28;20029;-71
2023/06/05 08:10:45;;;;;;;8.85;4.38;;;;;;;-143.48;47.88;118439.88;5017735;28;20026;-71
2023/06/05 08:13:10;;;;;;;6.25;4.30;;;;;;;-143.48;47.25;118439.88;5036249;28;20029;-71
2023/06/05 08:15:36;;;;;;;9.15;4.65;;;;;;;-143.48;50.15;118439.88;5035540;28;20396;-72
2023/06/05 08:18:02;;;;;;;6.43;4.13;;;;;;;-143.48;48.89;118439.88;5036061;28;20354;-72
2023/06/05 08:20:27;;;;;;;6.15;4.70;;;;;;;-143.48;50.06;118439.88;5036307;28;20014;-72
2023/06/05 08:22:57;;;;;;;6.22;4.35;;;;;;;-143.48;47.14;118439.88;5036246;28;20457;-72
2023/06/05 08:25:23;;;;;;;7.95;4.60;;;;;;;-143.48;49.71;118439.88;5036320;28;20021;-72
2023/06/05 08:27:48;;;;;;;7.63;4.20;;;;;;;-143.48;48.43;118439.88;5018577;28;20037;-72
2023/06/05 08:30:14;;;;;;;7.50;4.72;;;;;;;-143.48;46.57;118439.88;5035864;28;20088;-72
2023/06/05 08:32:39;;;;;;;7.55;4.47;;;;;;;-143.48;47.03;118439.88;5036226;28;20079;-72
2023/06/05 08:35:06;;;;;;;8.13;4.65;;;;;;;-143.48;47.62;118439.88;5018497;28;20396;-72
2023/06/05 08:37:32;;;;;;;10.02;4.78;;;;;;;-143.48;45.67;118439.88;5036563;28;20021;-72
2023/06/05 08:40:00;;;;;;;7.68;4.63;;;;;;;-143.48;46.35;118439.88;5018632;28;20112;-71
2023/06/05 08:42:28;;;;;;;6.15;4.55;;;;;;;-143.48;46.27;118439.88;5018193;28;20116;-70
2023/06/05 08:44:54;;;;;;;7.53;4.75;;;;;;;-143.48;44.86;118439.88;5035956;28;20041;-71
2023/06/05 08:47:22;;;;;;;6.25;4.32;;;;;;;-143.48;44.61;118439.88;5017919;28;20368;-70
2023/06/05 08:49:52;;;;;;;7.15;4.60;;;;;;;-143.48;43.36;118439.88;5035579;28;20021;-70
2023/06/05 08:52:21;;;;;;;6.85;4.45;;;;;;;-143.48;44.38;118439.88;5036202;28;20060;-70
2023/06/05 08:54:46;;;;;;;9.02;4.68;;;;;;;-143.48;46.53;118439.88;5017985;28;20040;-70
2023/06/05 08:57:12;;;;;;;6.97;4.32;;;;;;;-143.48;43.93;118439.88;5017792;28;20457;-71
2023/06/05 08:59:38;;;;;;;7.63;4.45;;;;;;;-143.48;45.14;118439.88;5018382;28;20358;-72
2023/06/05 09:02:04;;;;;;;7.68;4.45;;;;;;;-143.48;44.80;118439.88;5017332;28;20049;-72
2023/06/05 09:04:30;;;;;;;7.53;4.25;;;;;;;-143.48;46.58;118439.88;5035352;28;20033;-70
2023/06/05 09:06:59;;;;;;;6.25;4.30;;;;;;;-143.48;44.15;118439.88;5017368;28;20055;-71
2023/06/05 09:09:25;;;;;;;6.32;3.78;;;;;;;-143.48;42.63;118439.88;5017328;28;20030;-71
2023/06/05 09:12:08;;;;;;;6.95;4.18;;;;;;;-143.48;44.01;118439.88;5017331;28;20029;-70
2023/06/05 09:14:35;;;;;;;8.93;3.70;;;;;;;-143.48;42.43;118439.88;5017047;28;20072;-72
2023/06/05 09:17:02;;;;;;;8.10;4.00;;;;;;;-143.48;43.60;118439.88;5017303;28;20083;-70
2023/06/05 09:19:39;;;;;;;6.82;4.22;;;;;;;-143.48;43.64;118439.88;5017419;28;20640;-71
2023/06/05 09:22:07;;;;;;;5.68;3.70;;;;;;;-143.48;42.49;118439.88;5017652;28;20144;-72
2023/06/05 09:24:32;;;;;;;9.35;3.83;;;;;;;-143.48;44.31;118439.88;5017615;28;20053;-72
2023/06/05 09:27:08;;;;;;;8.57;3.97;;;;;;;-143.48;43.75;118439.88;5017551;28;20025;-72
2023/06/05 09:29:38;;;;;;;10.93;3.70;;;;;;;-143.48;42.71;118439.88;5017082;28;20040;-72
2023/06/05 09:32:06;;;;;;;7.05;3.95;;;;;;;-143.48;42.61;118439.88;5034824;28;20497;-72
2023/06/05 09:34:37;;;;;;;6.50;4.03;;;;;;;-143.48;43.09;118439.88;5016295;28;20060;-72
2023/06/05 09:37:07;;;;;;;6.53;3.70;;;;;;;-143.48;41.89;118439.88;5017089;28;20376;-71
2023/06/05 09:39:34;;;;;;;5.57;3.35;;;;;;;-143.48;41.90;118439.88;5035339;28;20370;-71
2023/06/05 09:42:00;;;;;;;5.63;3.47;;;;;;;-143.48;40.80;118439.88;5034940;28;20025;-72
2023/06/05 09:44:28;;;;;;;5.32;3.88;;;;;;;-143.48;42.80;118439.88;5035154;28;20109;-71
2023/06/05 09:46:58;;;;;;;9.57;3.67;;;;;;;-143.48;42.43;118439.88;5034832;28;20025;-71
2023/06/05 09:49:38;;;;;;;6.85;4.07;;;;;;;-143.48;43.78;118439.88;5034279;28;20037;-72
2023/06/05 09:52:03;;;;;;;6.05;3.78;;;;;;;-143.48;42.97;118439.88;5035200;28;20032;-72
2023/06/05 09:54:30;;;;;;;8.55;3.70;;;;;;;-143.48;43.64;118439.88;5034451;28;20025;-72
2023/06/05 09:57:03;;;;;;;5.40;3.65;;;;;;;-143.48;44.55;118439.88;5034811;28;20354;-72
2023/06/05 09:59:31;;;;;;;6.22;4.22;;;;;;;-143.48;42.45;118439.88;5035194;28;20477;-72
2023/06/05 10:01:59;;;;;;;5.75;3.67;;;;;;;-143.48;42.13;118439.88;5015576;28;20088;-72
2023/06/05 10:04:26;;;;;;;7.07;3.60;;;;;;;-143.48;42.71;118439.88;5033086;28;20365;-72
2023/06/05 10:06:59;;;;;;;7.53;3.47;;;;;;;-143.48;42.14;118439.88;5015267;28;20112;-72
2023/06/05 10:09:25;;;;;;;;;;;;;;;-143.48;41.35;118439.88;5015572;28;20025;-72
2023/06/05 10:11:51;;;;;;;6.05;3.83;;;;;;;-143.48;41.57;118439.88;5033783;28;20376;-72
2023/06/05 10:14:19;;;;;;;4.57;3.17;;;;;;;-143.48;41.55;118439.88;5015497;28;20025;-72
2023/06/05 10:16:49;;;;;;;5.20;3.20;;;;;;;-143.48;42.21;118439.88;5015156;28;20025;-69
2023/06/05 10:19:15;;;;;;;5.47;3.30;;;;;;;-143.48;41.12;118439.88;5033109;28;20013;-70
2023/06/05 10:21:41;;;;;;;8.30;3.50;;;;;;;-143.48;40.24;118439.88;5015846;28;20214;-70
2023/06/05 10:24:11;;;;;;;7.55;3.40;;;;;;;-143.48;41.57;118439.88;5033590;28;20124;-71
2023/06/05 10:27:12;;;;;;;5.90;3.30;;;;;;;-143.48;40.98;118439.88;5014075;28;20481;-71
2023/06/05 10:30:02;;;;;;;7.85;3.00;;;;;;;-143.48;41.40;118439.88;5015652;28;20030;-70
2023/06/05 10:32:28;;;;;;;9.18;3.15;;;;;;;-143.48;40.76;118439.88;5033588;28;20032;-70
2023/06/05 10:35:12;;;;;;;4.50;2.80;;;;;;;-143.48;41.67;118439.88;5015676;28;20170;-70
2023/06/05 10:38:17;;;;;;;6.28;3.30;;;;;;;-143.48;40.42;118439.88;5033138;28;20059;-70
2023/06/05 10:40:48;;;;;;;5.22;3.30;;;;;;;-143.48;42.73;118439.88;5014986;28;20354;-70
2023/06/05 10:43:28;;;;;;;4.93;3.00;;;;;;;-143.48;41.36;118439.88;5032688;28;20028;-71
2023/06/05 10:45:55;;;;;;;4.40;3.13;;;;;;;-143.48;42.68;118439.88;5014781;28;20053;-69
2023/06/05 10:48:20;;;;;;;4.97;2.78;;;;;;;-143.48;41.76;118439.88;5032468;28;20025;-70
2023/06/05 10:50:46;;;;;;;6.30;3.00;;;;;;;-143.48;41.13;118439.88;5014579;28;20049;-70
2023/06/05 10:53:44;;;;;;;8.88;3.00;;;;;;;-143.48;39.84;118439.88;5032960;28;20127;-69
2023/06/05 10:56:48;;;;;;;4.32;3.10;;;;;;;-143.48;41.59;118439.88;5033439;28;20029;-71
2023/06/05 10:59:14;;;;;;;5.05;3.33;;;;;;;-143.48;41.83;118439.88;5015009;28;20422;-70
2023/06/05 11:01:40;;;;;;;5.63;2.95;;;;;;;-143.48;40.91;118439.88;4996290;28;1064387;-71
2023/06/05 11:04:05;;;;;;;4.38;3.00;;;;;;;-143.48;41.60;118439.88;5015771;28;20133;-71
2023/06/05 11:06:31;;;;;;;6.88;3.00;;;;;;;-143.48;41.39;118439.88;5015757;28;20034;-70
2023/06/05 11:09:13;;;;;;;4.80;2.90;;;;;;;-143.48;41.59;118439.88;5033482;28;20116;-70